Terminal Aerodrome Forecast
Issued by NWS

Home | Current Version | Previous Version | Text Only | Print | Product List | Glossary On
Versions: 1 2 3 4 5 6 7 8 9 10 11 12 13 14 15 16
000
FTUS46 KMTR 240543
TAFSNS
TAF
KSNS 240543Z 2406/2506 00000KT 6SM RA VCSH BKN040 OVC050
     FM241000 11008KT P6SM BKN050
     FM241700 11013KT P6SM SKC
     FM242100 11006KT P6SM SKC
     FM242300 29006KT P6SM SKC
     FM250300 00000KT P6SM SKC=

USA.gov is the U.S. government's official web portal to all federal, state and local government web resources and services.